North Delran, New Jersey
Current Conditions -  °F | °C
As of 9:54 AM on Monday 24 Nov 2014 (Local Time) from KPNE Reporting Station
Overcast Overcast  
Wind Chill: 69°   Ceiling: 1900
Heat Index: 69°   Visibility: 10mi
Dew Point: 60°   Wind: 14mph
Humidity: 73%   Direction: 210°SSW
Pressure: 29.69"   Gusts: 21mph
Location:  40.0192°N, 74.9489°W
Report Text: KPNE 241454Z AUTO 21012G18KT 10SM BKN019 OVC028 21/16 A2969 RMK AO2 SLP054 T02060156 58002 TSNO
Loading
Personal Weather Stations






























Interactive Weather Map New forecast layout! Learn more

10-Day Weather Forecast

Advertisements
Track Severe Weather on mobile